createdAt,value
2023-01-12T00:01:52.448Z,150019.31
2023-01-12T00:04:19.273Z,150011.78
2023-01-12T00:06:45.265Z,150038.22
2023-01-12T00:09:11.111Z,150035.72
2023-01-12T00:11:38.262Z,150013.03
2023-01-12T00:14:05.736Z,150029.44
2023-01-12T00:16:34.428Z,150034.47
2023-01-12T00:19:12.319Z,150013.03
2023-01-12T00:21:59.678Z,150009.28
2023-01-12T00:24:29.509Z,150040.78
2023-01-12T00:26:56.982Z,150043.31
2023-01-12T00:29:24.222Z,150038.22
2023-01-12T00:31:50.502Z,150023.16
2023-01-12T00:34:16.678Z,150018.06
2023-01-12T00:36:43.635Z,150035.72
2023-01-12T00:39:09.501Z,150029.44
2023-01-12T00:41:58.575Z,150030.69
2023-01-12T00:44:43.517Z,150049.59
2023-01-12T00:47:10.867Z,150034.47
2023-01-12T00:49:37.608Z,150038.22
2023-01-12T00:52:05.338Z,150040.78
2023-01-12T00:54:32.161Z,150054.63
2023-01-12T00:56:58.030Z,150042.06
2023-01-12T00:59:23.950Z,150074.78
2023-01-12T01:01:50.322Z,150064.72
2023-01-12T01:04:16.390Z,150067.25
2023-01-12T01:06:42.183Z,150086.16
2023-01-12T01:09:08.049Z,150095.00
2023-01-12T01:11:34.908Z,150098.78
2023-01-12T01:14:01.766Z,150132.81
2023-01-12T01:16:29.138Z,150121.47
2023-01-12T01:18:55.623Z,150093.75
2023-01-12T01:21:21.848Z,150107.56
2023-01-12T01:23:47.752Z,150102.53
2023-01-12T01:26:17.393Z,150117.69
2023-01-12T01:28:43.617Z,150146.66
2023-01-12T01:31:15.593Z,150145.41
2023-01-12T01:33:41.755Z,150095.00
2023-01-12T01:36:08.879Z,150106.31
2023-01-12T01:38:35.777Z,150116.41
2023-01-12T01:41:02.227Z,150107.56
2023-01-12T01:43:29.335Z,150116.41
2023-01-12T01:45:57.814Z,150132.81
2023-01-12T01:48:26.282Z,150130.31
2023-01-12T01:50:57.860Z,150141.63
2023-01-12T01:53:27.659Z,150140.38
2023-01-12T01:56:05.060Z,150135.34
2023-01-12T01:58:49.398Z,150115.16
2023-01-12T02:01:15.546Z,150130.31
2023-01-12T02:03:41.494Z,150154.25
2023-01-12T02:06:08.722Z,150164.31
2023-01-12T02:08:43.947Z,150136.59
2023-01-12T02:11:29.205Z,150122.72
2023-01-12T02:14:13.707Z,150144.13
2023-01-12T02:16:53.388Z,150141.63
2023-01-12T02:19:38.967Z,150127.75
2023-01-12T02:22:27.567Z,150135.34
2023-01-12T02:25:12.046Z,150111.41
2023-01-12T02:27:52.830Z,150116.41
2023-01-12T02:30:45.479Z,150151.72
2023-01-12T02:33:25.455Z,150142.88
2023-01-12T02:36:12.987Z,150139.09
2023-01-12T02:39:03.233Z,150115.16
2023-01-12T02:41:53.619Z,150125.22
2023-01-12T02:44:31.407Z,150150.47
2023-01-12T02:47:00.081Z,150140.38
2023-01-12T02:49:31.189Z,150159.28
2023-01-12T02:52:04.304Z,150134.06
2023-01-12T02:54:32.283Z,150139.09
2023-01-12T02:57:05.541Z,150161.78
2023-01-12T02:59:39.610Z,150151.72
2023-01-12T03:02:19.197Z,150151.72
2023-01-12T03:04:45.109Z,150147.97
2023-01-12T03:07:14.205Z,150131.56
2023-01-12T03:09:53.732Z,150108.84
2023-01-12T03:12:25.408Z,150111.41
2023-01-12T03:14:53.037Z,150116.41
2023-01-12T03:17:28.048Z,150108.84
2023-01-12T03:19:58.772Z,150102.53
2023-01-12T03:22:24.888Z,150110.09
2023-01-12T03:24:57.485Z,150116.41
2023-01-12T03:27:38.387Z,150115.16
2023-01-12T03:30:10.733Z,150125.22
2023-01-12T03:32:36.713Z,150130.31
2023-01-12T03:35:04.809Z,150131.56
2023-01-12T03:37:33.962Z,150139.09
2023-01-12T03:40:07.103Z,150142.88
2023-01-12T03:42:57.385Z,150129.00
2023-01-12T03:45:28.221Z,150111.41
2023-01-12T03:48:20.143Z,150108.84
2023-01-12T03:50:56.678Z,150132.81
2023-01-12T03:53:23.104Z,150116.41
2023-01-12T03:55:54.675Z,150108.84
2023-01-12T03:58:22.499Z,150127.75
2023-01-12T04:00:48.364Z,150121.47
2023-01-12T04:03:15.759Z,150132.81
2023-01-12T04:05:42.697Z,150137.84
2023-01-12T04:08:10.045Z,150132.81
2023-01-12T04:10:36.041Z,150149.22
2023-01-12T04:13:01.905Z,150146.66
2023-01-12T04:15:27.748Z,150145.41
2023-01-12T04:17:53.667Z,150120.19
2023-01-12T04:20:19.838Z,150117.69
2023-01-12T04:22:46.145Z,150120.19
2023-01-12T04:25:20.003Z,150135.34
2023-01-12T04:28:03.670Z,150130.31
2023-01-12T04:30:31.422Z,150139.09
2023-01-12T04:32:58.947Z,150113.91
2023-01-12T04:35:25.769Z,150117.69
2023-01-12T04:37:52.029Z,150134.06
2023-01-12T04:40:18.528Z,150135.34
2023-01-12T04:43:07.019Z,150129.00
2023-01-12T04:45:39.420Z,150110.09
2023-01-12T04:48:13.828Z,150108.84
2023-01-12T04:50:40.836Z,150111.41
2023-01-12T04:53:08.940Z,150111.41
2023-01-12T04:55:36.291Z,150111.41
2023-01-12T04:58:02.562Z,150110.09
2023-01-12T05:00:28.468Z,150110.09
2023-01-12T05:03:01.361Z,150101.28
2023-01-12T05:05:28.703Z,150098.78
2023-01-12T05:08:13.094Z,150106.31
2023-01-12T05:10:39.013Z,150117.69
2023-01-12T05:13:05.297Z,150127.75
2023-01-12T05:15:31.143Z,150113.91
2023-01-12T05:17:57.180Z,150108.84
2023-01-12T05:20:23.024Z,150113.91
2023-01-12T05:22:50.668Z,150131.56
2023-01-12T05:25:16.605Z,150126.47
2023-01-12T05:27:42.403Z,150102.53
2023-01-12T05:30:08.857Z,150115.16
2023-01-12T05:32:38.620Z,150111.41
2023-01-12T05:35:05.938Z,150105.06
2023-01-12T05:37:31.912Z,150106.31
2023-01-12T05:39:57.757Z,150110.09
2023-01-12T05:42:42.446Z,150134.06
2023-01-12T05:45:09.743Z,150122.72
2023-01-12T05:47:35.771Z,150115.16
2023-01-12T05:50:01.865Z,150113.91
2023-01-12T05:52:27.710Z,150110.09
2023-01-12T05:54:53.538Z,150095.00
2023-01-12T05:57:19.342Z,150113.91
2023-01-12T05:59:45.162Z,150092.44
2023-01-12T06:02:16.354Z,150103.81
2023-01-12T06:04:45.040Z,150100.03
2023-01-12T06:07:15.566Z,150078.59
2023-01-12T06:09:42.135Z,150089.91
2023-01-12T06:12:29.237Z,150101.28
2023-01-12T06:14:55.135Z,150105.06
2023-01-12T06:17:21.006Z,150102.53
2023-01-12T06:19:46.886Z,150089.91
2023-01-12T06:22:12.718Z,150095.00
2023-01-12T06:24:38.542Z,150098.78
2023-01-12T06:27:04.338Z,150074.78
2023-01-12T06:29:30.278Z,150086.16
2023-01-12T06:31:56.123Z,150067.25
2023-01-12T06:34:21.993Z,150079.88
2023-01-12T06:36:48.719Z,150081.13
2023-01-12T06:39:14.680Z,150077.34
2023-01-12T06:41:59.037Z,150073.53
2023-01-12T06:44:24.876Z,150073.53
2023-01-12T06:46:51.613Z,150053.38
2023-01-12T06:49:17.807Z,150055.88
2023-01-12T06:51:43.686Z,150055.88
2023-01-12T06:54:09.569Z,150083.63
2023-01-12T06:56:35.427Z,150079.88
2023-01-12T06:59:01.278Z,150081.13
2023-01-12T07:01:27.249Z,150095.00
2023-01-12T07:03:53.502Z,150102.53
2023-01-12T07:06:19.616Z,150081.13
2023-01-12T07:08:45.491Z,150111.41
2023-01-12T07:11:16.016Z,150084.91
2023-01-12T07:13:42.060Z,150092.44
2023-01-12T07:16:08.034Z,150093.75
2023-01-12T07:18:33.870Z,150095.00
2023-01-12T07:21:04.029Z,150097.50
2023-01-12T07:23:29.873Z,150086.16
2023-01-12T07:25:56.738Z,150102.53
2023-01-12T07:28:22.980Z,150087.41
2023-01-12T07:30:48.888Z,150089.91
2023-01-12T07:33:18.500Z,150093.75
2023-01-12T07:35:44.724Z,150096.25
2023-01-12T07:38:10.532Z,150098.78
2023-01-12T07:40:36.396Z,150082.38
2023-01-12T07:43:07.972Z,150086.16
2023-01-12T07:45:34.703Z,150086.16
2023-01-12T07:48:00.742Z,150092.44
2023-01-12T07:50:28.095Z,150082.38
2023-01-12T07:52:54.231Z,150108.84
2023-01-12T07:55:20.180Z,150097.50
2023-01-12T07:57:57.596Z,150101.28
2023-01-12T08:00:24.331Z,150131.56
2023-01-12T08:02:51.655Z,150132.81
2023-01-12T08:05:17.884Z,150125.22
2023-01-12T08:07:43.826Z,150116.41
2023-01-12T08:10:12.061Z,150129.00
2023-01-12T08:12:40.492Z,150134.06
2023-01-12T08:15:07.540Z,150130.31
2023-01-12T08:17:40.066Z,150149.22
2023-01-12T08:20:16.169Z,150156.75
2023-01-12T08:22:45.563Z,150154.25
2023-01-12T08:25:19.231Z,150149.22
2023-01-12T08:27:49.308Z,150149.22
2023-01-12T08:30:17.130Z,150136.59
2023-01-12T08:32:43.161Z,150150.47
2023-01-12T08:35:14.331Z,150145.41
2023-01-12T08:37:40.267Z,150153.00
2023-01-12T08:40:06.921Z,150161.78
2023-01-12T08:42:32.771Z,150170.66
2023-01-12T08:44:58.981Z,150179.44
2023-01-12T08:47:27.513Z,150179.44
2023-01-12T08:49:54.640Z,150207.22
2023-01-12T08:52:20.907Z,150208.47
2023-01-12T08:54:47.271Z,150212.25
2023-01-12T08:57:13.169Z,150250.09
2023-01-12T08:59:38.977Z,150243.78
2023-01-12T09:02:05.408Z,150257.69
2023-01-12T09:04:31.355Z,150255.16
2023-01-12T09:06:59.896Z,150267.75
2023-01-12T09:09:26.048Z,150255.16
2023-01-12T09:11:51.939Z,150253.84
2023-01-12T09:14:17.868Z,150266.50
2023-01-12T09:16:43.734Z,150284.19
2023-01-12T09:19:09.819Z,150274.09
2023-01-12T09:21:37.737Z,150295.56
2023-01-12T09:24:04.370Z,150287.97
2023-01-12T09:26:35.230Z,150280.38
2023-01-12T09:29:03.486Z,150262.72
2023-01-12T09:31:31.629Z,150300.59
2023-01-12T09:33:58.273Z,150294.31
2023-01-12T09:36:27.071Z,150299.34
2023-01-12T09:38:53.239Z,150296.81
2023-01-12T09:41:56.464Z,150313.22
2023-01-12T09:44:49.958Z,150314.50
2023-01-12T09:47:20.343Z,150320.78
2023-01-12T09:50:08.684Z,150320.78
2023-01-12T09:52:46.859Z,150320.78
2023-01-12T09:55:19.414Z,150348.56
2023-01-12T09:58:14.850Z,150362.41
2023-01-12T10:00:40.833Z,150348.56
2023-01-12T10:03:13.636Z,150338.44
2023-01-12T10:05:52.442Z,150353.59
2023-01-12T10:08:31.722Z,150362.41
2023-01-12T10:11:42.283Z,150367.50
2023-01-12T10:14:29.111Z,150390.19
2023-01-12T10:17:15.689Z,150388.94
2023-01-12T10:19:53.196Z,150388.94
2023-01-12T10:22:36.507Z,150407.84
2023-01-12T10:25:17.809Z,150402.81
2023-01-12T10:27:46.870Z,150410.38
2023-01-12T10:30:19.101Z,150421.75
2023-01-12T10:32:45.419Z,150425.53
2023-01-12T10:35:17.049Z,150425.53
2023-01-12T10:37:48.027Z,150412.88
2023-01-12T10:40:22.960Z,150410.38
2023-01-12T10:43:20.182Z,150407.84
2023-01-12T10:46:05.393Z,150433.06
2023-01-12T10:48:31.981Z,150431.81
2023-01-12T10:50:59.750Z,150449.50
2023-01-12T10:53:37.718Z,150419.22
2023-01-12T10:56:16.447Z,150453.31
2023-01-12T10:58:47.187Z,150443.19
2023-01-12T11:01:13.984Z,150445.72
2023-01-12T11:03:41.600Z,150491.19
2023-01-12T11:06:33.741Z,150484.84
2023-01-12T11:09:18.457Z,150472.25
2023-01-12T11:11:44.448Z,150477.28
2023-01-12T11:14:24.386Z,150474.75
2023-01-12T11:16:50.263Z,150476.03
2023-01-12T11:19:28.711Z,150502.50
2023-01-12T11:22:04.825Z,150479.78
2023-01-12T11:24:37.311Z,150501.25
2023-01-12T11:27:32.068Z,150503.75
2023-01-12T11:30:03.382Z,150526.53
2023-01-12T11:32:38.255Z,150517.66
2023-01-12T11:35:20.519Z,150517.66
2023-01-12T11:37:47.953Z,150544.19
2023-01-12T11:40:36.994Z,150531.56
2023-01-12T11:43:30.455Z,150515.16
2023-01-12T11:46:20.192Z,150534.06
2023-01-12T11:49:05.973Z,150536.59
2023-01-12T11:51:32.012Z,150507.59
2023-01-12T11:53:57.907Z,150539.13
2023-01-12T11:56:26.813Z,150549.25
2023-01-12T11:59:06.611Z,150541.63
2023-01-12T12:02:04.881Z,150574.47
2023-01-12T12:04:53.974Z,150539.13
2023-01-12T12:07:40.921Z,150549.25
2023-01-12T12:10:24.681Z,150560.63
2023-01-12T12:13:09.020Z,150582.06
2023-01-12T12:15:48.192Z,150564.41
2023-01-12T12:18:43.622Z,150580.81
2023-01-12T12:21:18.681Z,150559.31
2023-01-12T12:24:01.115Z,150568.19
2023-01-12T12:26:36.050Z,150592.16
2023-01-12T12:29:08.098Z,150571.94
2023-01-12T12:31:52.782Z,150578.28
2023-01-12T12:34:33.652Z,150579.56
2023-01-12T12:37:14.729Z,150561.88
2023-01-12T12:40:01.061Z,150555.53
2023-01-12T12:43:11.850Z,150554.28
2023-01-12T12:45:38.890Z,150556.78
2023-01-12T12:48:26.827Z,150561.88
2023-01-12T12:51:06.922Z,150561.88
2023-01-12T12:53:41.906Z,150583.34
2023-01-12T12:56:17.957Z,150559.31
2023-01-12T12:58:47.425Z,150558.06
2023-01-12T13:01:19.396Z,150565.66
2023-01-12T13:03:52.479Z,150566.91
2023-01-12T13:06:27.231Z,150574.47
2023-01-12T13:08:57.990Z,150582.06
2023-01-12T13:11:52.739Z,150593.41
2023-01-12T13:14:24.090Z,150580.81
2023-01-12T13:16:53.173Z,150573.22
2023-01-12T13:19:38.247Z,150566.91
2023-01-12T13:22:26.317Z,150587.13
2023-01-12T13:24:53.292Z,150563.13
2023-01-12T13:27:59.523Z,150566.91
2023-01-12T13:30:28.146Z,150589.63
2023-01-12T13:33:15.664Z,150602.28
2023-01-12T13:35:44.243Z,150580.81
2023-01-12T13:38:18.181Z,150588.38
2023-01-12T13:40:56.021Z,150616.16
2023-01-12T13:43:33.547Z,150593.41
2023-01-12T13:46:11.729Z,150601.00
2023-01-12T13:48:42.458Z,150595.97
2023-01-12T13:51:26.719Z,150597.22
2023-01-12T13:54:04.972Z,150597.22
2023-01-12T13:56:31.503Z,150599.75
2023-01-12T13:59:05.496Z,150584.59
2023-01-12T14:01:38.107Z,150593.41
2023-01-12T14:04:24.357Z,150584.59
2023-01-12T14:07:09.407Z,150589.63
2023-01-12T14:10:07.772Z,150565.66
2023-01-12T14:12:52.139Z,150588.38
2023-01-12T14:15:36.336Z,150609.81
2023-01-12T14:18:08.532Z,150601.00
2023-01-12T14:20:57.893Z,150584.59
2023-01-12T14:23:35.567Z,150608.56
2023-01-12T14:26:15.809Z,150585.84
2023-01-12T14:28:47.267Z,150575.72
2023-01-12T14:31:42.809Z,150579.56
2023-01-12T14:34:25.752Z,150555.53
2023-01-12T14:36:51.837Z,150571.94
2023-01-12T14:39:23.875Z,150561.88
2023-01-12T14:42:14.983Z,150559.31
2023-01-12T14:45:11.342Z,150577.00
2023-01-12T14:47:38.075Z,150582.06
2023-01-12T14:50:22.234Z,150570.69
2023-01-12T14:52:49.632Z,150574.47
2023-01-12T14:55:26.215Z,150574.47
2023-01-12T14:58:00.725Z,150597.22
2023-01-12T15:00:30.090Z,150580.81
2023-01-12T15:02:58.358Z,150587.13
2023-01-12T15:05:27.050Z,150589.63
2023-01-12T15:08:07.955Z,150575.72
2023-01-12T15:10:42.233Z,150555.53
2023-01-12T15:13:21.149Z,150563.13
2023-01-12T15:16:07.306Z,150554.28
2023-01-12T15:18:53.935Z,150563.13
2023-01-12T15:21:39.794Z,150564.41
2023-01-12T15:24:43.293Z,150568.19
2023-01-12T15:27:11.539Z,150553.00
2023-01-12T15:29:37.508Z,150540.38
2023-01-12T15:32:08.925Z,150536.59
2023-01-12T15:34:35.308Z,150547.97
2023-01-12T15:37:01.166Z,150556.78
2023-01-12T15:39:27.098Z,150547.97
2023-01-12T15:42:12.984Z,150568.19
2023-01-12T15:44:38.908Z,150551.75
2023-01-12T15:47:18.582Z,150559.31
2023-01-12T15:49:48.518Z,150547.97
2023-01-12T15:52:22.804Z,150560.63
2023-01-12T15:54:49.444Z,150545.47
2023-01-12T15:57:16.247Z,150555.53
2023-01-12T15:59:42.331Z,150539.13
2023-01-12T16:02:35.733Z,150545.47
2023-01-12T16:05:04.543Z,150568.19
2023-01-12T16:07:30.797Z,150561.88
2023-01-12T16:09:57.263Z,150578.28
2023-01-12T16:12:24.298Z,150585.84
2023-01-12T16:14:50.617Z,150546.72
2023-01-12T16:17:16.836Z,150565.66
2023-01-12T16:19:43.088Z,150555.53
2023-01-12T16:22:29.867Z,150577.00
2023-01-12T16:24:56.211Z,150569.44
2023-01-12T16:27:24.289Z,150566.91
2023-01-12T16:29:50.116Z,150556.78
2023-01-12T16:32:17.921Z,150554.28
2023-01-12T16:34:45.135Z,150560.63
2023-01-12T16:37:13.028Z,150558.06
2023-01-12T16:39:39.498Z,150556.78
2023-01-12T16:42:05.389Z,150566.91
2023-01-12T16:44:39.561Z,150570.69
2023-01-12T16:47:16.190Z,150556.78
2023-01-12T16:49:42.349Z,150564.41
2023-01-12T16:52:12.679Z,150564.41
2023-01-12T16:54:41.826Z,150563.13
2023-01-12T16:57:13.258Z,150556.78
2023-01-12T16:59:40.051Z,150547.97
2023-01-12T17:02:07.533Z,150542.94
2023-01-12T17:04:37.733Z,150547.97
2023-01-12T17:07:05.553Z,150559.31
2023-01-12T17:09:34.222Z,150545.47
2023-01-12T17:12:00.228Z,150573.22
2023-01-12T17:14:26.839Z,150554.28
2023-01-12T17:16:57.800Z,150558.06
2023-01-12T17:19:26.356Z,150550.50
2023-01-12T17:21:55.780Z,150545.47
2023-01-12T17:24:22.255Z,150551.75
2023-01-12T17:26:50.946Z,150553.00
2023-01-12T17:29:16.941Z,150544.19
2023-01-12T17:31:43.003Z,150542.94
2023-01-12T17:34:11.699Z,150559.31
2023-01-12T17:36:38.251Z,150554.28
2023-01-12T17:39:04.971Z,150570.69
2023-01-12T17:41:49.568Z,150549.25
2023-01-12T17:44:16.041Z,150556.78
2023-01-12T17:46:43.901Z,150565.66
2023-01-12T17:49:10.633Z,150555.53
2023-01-12T17:51:37.516Z,150564.41
2023-01-12T17:54:05.561Z,150545.47
2023-01-12T17:56:33.206Z,150540.38
2023-01-12T17:59:00.175Z,150546.72
2023-01-12T18:01:29.064Z,150529.03
2023-01-12T18:03:55.780Z,150531.56
2023-01-12T18:06:28.616Z,150536.59
2023-01-12T18:08:56.633Z,150550.50
2023-01-12T18:11:23.287Z,150554.28
2023-01-12T18:13:49.388Z,150529.03
2023-01-12T18:16:15.905Z,150529.03
2023-01-12T18:18:43.412Z,150541.63
2023-01-12T18:21:11.468Z,150534.06
2023-01-12T18:23:38.175Z,150532.81
2023-01-12T18:26:06.856Z,150542.94
2023-01-12T18:28:33.122Z,150555.53
2023-01-12T18:31:06.495Z,150564.41
2023-01-12T18:33:32.384Z,150558.06
2023-01-12T18:35:58.362Z,150551.75
2023-01-12T18:38:26.327Z,150560.63
2023-01-12T18:41:11.558Z,150545.47
2023-01-12T18:43:37.853Z,150544.19
2023-01-12T18:46:10.895Z,150539.13
2023-01-12T18:48:37.087Z,150530.31
2023-01-12T18:51:22.598Z,150544.19
2023-01-12T18:53:48.731Z,150527.78
2023-01-12T18:56:14.737Z,150532.81
2023-01-12T18:58:42.512Z,150541.63
2023-01-12T19:01:14.604Z,150545.47
2023-01-12T19:03:41.119Z,150569.44
2023-01-12T19:06:18.129Z,150551.75
2023-01-12T19:09:02.456Z,150556.78
2023-01-12T19:11:28.474Z,150549.25
2023-01-12T19:14:12.951Z,150541.63
2023-01-12T19:16:57.785Z,150547.97
2023-01-12T19:19:27.096Z,150542.94
2023-01-12T19:22:12.046Z,150569.44
2023-01-12T19:24:56.985Z,150561.88
2023-01-12T19:27:41.946Z,150555.53
2023-01-12T19:30:08.746Z,150553.00
2023-01-12T19:32:34.751Z,150556.78
2023-01-12T19:35:10.324Z,150570.69
2023-01-12T19:37:37.431Z,150559.31
2023-01-12T19:40:12.598Z,150578.28
2023-01-12T19:42:56.908Z,150565.66
2023-01-12T19:45:22.869Z,150568.19
2023-01-12T19:47:49.430Z,150566.91
2023-01-12T19:50:15.590Z,150561.88
2023-01-12T19:52:42.719Z,150568.19
2023-01-12T19:55:11.780Z,150560.63
2023-01-12T19:57:38.736Z,150565.66
2023-01-12T20:00:07.843Z,150568.19
2023-01-12T20:02:34.273Z,150547.97
2023-01-12T20:05:00.285Z,150553.00
2023-01-12T20:07:28.067Z,150561.88
2023-01-12T20:09:54.086Z,150544.19
2023-01-12T20:12:21.098Z,150556.78
2023-01-12T20:14:46.948Z,150551.75
2023-01-12T20:17:13.034Z,150545.47
2023-01-12T20:19:39.004Z,150540.38
2023-01-12T20:22:04.899Z,150556.78
2023-01-12T20:24:30.861Z,150564.41
2023-01-12T20:26:56.710Z,150561.88
2023-01-12T20:29:23.132Z,150542.94
2023-01-12T20:31:51.606Z,150536.59
2023-01-12T20:34:21.016Z,150539.13
2023-01-12T20:36:47.910Z,150553.00
2023-01-12T20:39:14.864Z,150541.63
2023-01-12T20:41:41.850Z,150550.50
2023-01-12T20:44:12.534Z,150541.63
2023-01-12T20:46:38.827Z,150545.47
2023-01-12T20:49:04.975Z,150534.06
2023-01-12T20:51:30.791Z,150547.97
2023-01-12T20:53:57.635Z,150541.63
2023-01-12T20:56:25.211Z,150534.06
2023-01-12T20:58:51.579Z,150537.84
2023-01-12T21:01:18.265Z,150535.34
2023-01-12T21:03:44.236Z,150549.25
2023-01-12T21:06:12.938Z,150535.34
2023-01-12T21:08:42.217Z,150549.25
2023-01-12T21:11:09.293Z,150537.84
2023-01-12T21:13:35.886Z,150531.56
2023-01-12T21:16:04.436Z,150516.41
2023-01-12T21:18:31.291Z,150527.78
2023-01-12T21:20:57.257Z,150520.19
2023-01-12T21:23:24.229Z,150532.81
2023-01-12T21:25:50.434Z,150520.19
2023-01-12T21:28:17.531Z,150521.44
2023-01-12T21:30:43.471Z,150522.69
2023-01-12T21:33:10.067Z,150537.84
2023-01-12T21:35:36.274Z,150542.94
2023-01-12T21:38:02.580Z,150520.19
2023-01-12T21:40:28.573Z,150503.75
2023-01-12T21:43:09.951Z,150517.66
2023-01-12T21:45:44.563Z,150517.66
2023-01-12T21:48:12.134Z,150510.09
2023-01-12T21:50:38.330Z,150523.97
2023-01-12T21:53:06.186Z,150511.38
2023-01-12T21:55:33.293Z,150510.09
2023-01-12T21:58:01.262Z,150508.84
2023-01-12T22:00:28.114Z,150483.56
2023-01-12T22:02:54.820Z,150494.94
2023-01-12T22:05:21.581Z,150497.47
2023-01-12T22:07:49.007Z,150506.34
2023-01-12T22:10:18.849Z,150511.38
2023-01-12T22:12:54.298Z,150492.44
2023-01-12T22:15:21.342Z,150496.22
2023-01-12T22:17:47.729Z,150508.84
2023-01-12T22:20:15.808Z,150521.44
2023-01-12T22:22:42.590Z,150517.66
2023-01-12T22:25:11.028Z,150541.63
2023-01-12T22:27:37.548Z,150540.38
2023-01-12T22:30:04.890Z,150534.06
2023-01-12T22:32:31.258Z,150556.78
2023-01-12T22:34:58.178Z,150539.13
2023-01-12T22:37:28.163Z,150554.28
2023-01-12T22:39:54.751Z,150578.28
2023-01-12T22:42:45.412Z,150558.06
2023-01-12T22:45:12.746Z,150579.56
2023-01-12T22:47:47.943Z,150573.22
2023-01-12T22:50:14.287Z,150553.00
2023-01-12T22:52:41.225Z,150582.06
2023-01-12T22:55:07.428Z,150575.72
2023-01-12T22:57:33.305Z,150547.97
2023-01-12T22:59:59.191Z,150547.97
2023-01-12T23:02:43.911Z,150545.47
2023-01-12T23:05:09.908Z,150556.78
2023-01-12T23:07:35.751Z,150547.97
2023-01-12T23:10:01.726Z,150547.97
2023-01-12T23:12:28.469Z,150583.34
2023-01-12T23:14:54.240Z,150570.69
2023-01-12T23:17:20.097Z,150587.13
2023-01-12T23:19:45.940Z,150568.19
2023-01-12T23:22:11.749Z,150568.19
2023-01-12T23:24:37.519Z,150590.88
2023-01-12T23:27:04.249Z,150579.56
2023-01-12T23:29:30.472Z,150574.47
2023-01-12T23:31:56.308Z,150570.69
2023-01-12T23:34:22.222Z,150582.06
2023-01-12T23:36:48.028Z,150604.78
2023-01-12T23:39:13.893Z,150595.97
2023-01-12T23:41:40.336Z,150604.78
2023-01-12T23:44:08.801Z,150571.94
2023-01-12T23:46:37.835Z,150580.81
2023-01-12T23:49:04.263Z,150583.34
2023-01-12T23:51:30.325Z,150598.50
2023-01-12T23:53:59.020Z,150578.28
2023-01-12T23:56:27.223Z,150587.13
2023-01-12T23:58:53.067Z,150599.75
